sensor_id;sensor_type;location;lat;lon;timestamp;P1;durP1;ratioP1;P2;durP2;ratioP2
4047;SDS011;2038;51.728;6.674;2024-02-26T00:00:57;6.60;;;4.97;;
4047;SDS011;2038;51.728;6.674;2024-02-26T00:03:24;8.60;;;6.03;;
4047;SDS011;2038;51.728;6.674;2024-02-26T00:05:50;5.63;;;4.73;;
4047;SDS011;2038;51.728;6.674;2024-02-26T00:08:16;5.60;;;4.80;;
4047;SDS011;2038;51.728;6.674;2024-02-26T00:10:42;6.53;;;4.70;;
4047;SDS011;2038;51.728;6.674;2024-02-26T00:13:08;4.53;;;4.13;;
4047;SDS011;2038;51.728;6.674;2024-02-26T00:15:35;5.97;;;4.27;;
4047;SDS011;2038;51.728;6.674;2024-02-26T00:18:01;5.60;;;4.20;;
4047;SDS011;2038;51.728;6.674;2024-02-26T00:20:27;5.87;;;4.30;;
4047;SDS011;2038;51.728;6.674;2024-02-26T00:22:54;6.47;;;4.87;;
4047;SDS011;2038;51.728;6.674;2024-02-26T00:25:20;5.40;;;3.97;;
4047;SDS011;2038;51.728;6.674;2024-02-26T00:27:46;15.97;;;4.33;;
4047;SDS011;2038;51.728;6.674;2024-02-26T00:30:13;5.57;;;4.40;;
4047;SDS011;2038;51.728;6.674;2024-02-26T00:32:39;4.63;;;4.00;;
4047;SDS011;2038;51.728;6.674;2024-02-26T00:35:05;10.50;;;4.40;;
4047;SDS011;2038;51.728;6.674;2024-02-26T00:37:32;4.93;;;3.97;;
4047;SDS011;2038;51.728;6.674;2024-02-26T00:39:58;4.07;;;3.67;;
4047;SDS011;2038;51.728;6.674;2024-02-26T00:42:25;7.77;;;4.47;;
4047;SDS011;2038;51.728;6.674;2024-02-26T00:44:51;6.50;;;5.30;;
4047;SDS011;2038;51.728;6.674;2024-02-26T00:47:17;5.17;;;4.63;;
4047;SDS011;2038;51.728;6.674;2024-02-26T00:49:43;5.00;;;4.50;;
4047;SDS011;2038;51.728;6.674;2024-02-26T00:52:10;5.57;;;3.97;;
4047;SDS011;2038;51.728;6.674;2024-02-26T00:54:36;4.90;;;4.40;;
4047;SDS011;2038;51.728;6.674;2024-02-26T00:57:02;5.27;;;4.70;;
4047;SDS011;2038;51.728;6.674;2024-02-26T00:59:28;4.30;;;3.90;;
4047;SDS011;2038;51.728;6.674;2024-02-26T01:01:55;4.10;;;3.70;;
4047;SDS011;2038;51.728;6.674;2024-02-26T01:04:21;4.33;;;3.93;;
4047;SDS011;2038;51.728;6.674;2024-02-26T01:06:47;4.70;;;4.30;;
4047;SDS011;2038;51.728;6.674;2024-02-26T01:09:13;5.07;;;4.17;;
4047;SDS011;2038;51.728;6.674;2024-02-26T01:11:40;7.20;;;4.40;;
4047;SDS011;2038;51.728;6.674;2024-02-26T01:14:06;6.37;;;4.10;;
4047;SDS011;2038;51.728;6.674;2024-02-26T01:16:33;6.73;;;3.80;;
4047;SDS011;2038;51.728;6.674;2024-02-26T01:18:59;4.13;;;3.47;;
4047;SDS011;2038;51.728;6.674;2024-02-26T01:21:25;5.70;;;3.60;;
4047;SDS011;2038;51.728;6.674;2024-02-26T01:23:54;4.30;;;3.90;;
4047;SDS011;2038;51.728;6.674;2024-02-26T01:26:20;4.40;;;4.00;;
4047;SDS011;2038;51.728;6.674;2024-02-26T01:28:46;4.73;;;4.00;;
4047;SDS011;2038;51.728;6.674;2024-02-26T01:31:13;5.53;;;4.20;;
4047;SDS011;2038;51.728;6.674;2024-02-26T01:33:39;4.47;;;3.73;;
4047;SDS011;2038;51.728;6.674;2024-02-26T01:36:05;5.17;;;3.67;;
4047;SDS011;2038;51.728;6.674;2024-02-26T01:38:32;4.53;;;4.00;;
4047;SDS011;2038;51.728;6.674;2024-02-26T01:40:58;5.17;;;3.60;;
4047;SDS011;2038;51.728;6.674;2024-02-26T01:43:24;5.63;;;3.93;;
4047;SDS011;2038;51.728;6.674;2024-02-26T01:45:50;5.20;;;4.70;;
4047;SDS011;2038;51.728;6.674;2024-02-26T01:48:17;8.97;;;5.53;;
4047;SDS011;2038;51.728;6.674;2024-02-26T01:50:43;4.30;;;3.90;;
4047;SDS011;2038;51.728;6.674;2024-02-26T01:53:09;5.97;;;4.53;;
4047;SDS011;2038;51.728;6.674;2024-02-26T01:55:37;4.53;;;4.10;;
4047;SDS011;2038;51.728;6.674;2024-02-26T01:58:04;4.20;;;3.90;;
4047;SDS011;2038;51.728;6.674;2024-02-26T02:00:31;4.63;;;4.23;;
4047;SDS011;2038;51.728;6.674;2024-02-26T02:02:57;7.13;;;4.10;;
4047;SDS011;2038;51.728;6.674;2024-02-26T02:05:24;4.20;;;3.43;;
4047;SDS011;2038;51.728;6.674;2024-02-26T02:07:51;4.00;;;3.60;;
4047;SDS011;2038;51.728;6.674;2024-02-26T02:10:18;4.13;;;3.73;;
4047;SDS011;2038;51.728;6.674;2024-02-26T02:12:48;6.53;;;4.27;;
4047;SDS011;2038;51.728;6.674;2024-02-26T02:15:14;4.77;;;4.20;;
4047;SDS011;2038;51.728;6.674;2024-02-26T02:17:40;7.73;;;4.20;;
4047;SDS011;2038;51.728;6.674;2024-02-26T02:20:14;5.73;;;3.70;;
4047;SDS011;2038;51.728;6.674;2024-02-26T02:22:45;4.27;;;3.87;;
4047;SDS011;2038;51.728;6.674;2024-02-26T02:25:12;5.83;;;4.30;;
4047;SDS011;2038;51.728;6.674;2024-02-26T02:27:39;3.43;;;3.13;;
4047;SDS011;2038;51.728;6.674;2024-02-26T02:30:08;4.10;;;3.70;;
4047;SDS011;2038;51.728;6.674;2024-02-26T02:32:36;5.27;;;3.63;;
4047;SDS011;2038;51.728;6.674;2024-02-26T02:35:06;5.00;;;4.53;;
4047;SDS011;2038;51.728;6.674;2024-02-26T02:37:32;4.50;;;4.10;;
4047;SDS011;2038;51.728;6.674;2024-02-26T02:39:59;11.43;;;4.57;;
4047;SDS011;2038;51.728;6.674;2024-02-26T02:42:26;4.00;;;3.70;;
4047;SDS011;2038;51.728;6.674;2024-02-26T02:44:52;5.20;;;3.97;;
4047;SDS011;2038;51.728;6.674;2024-02-26T02:47:18;4.90;;;4.13;;
4047;SDS011;2038;51.728;6.674;2024-02-26T02:49:45;5.90;;;4.27;;
4047;SDS011;2038;51.728;6.674;2024-02-26T02:52:11;4.70;;;3.87;;
4047;SDS011;2038;51.728;6.674;2024-02-26T02:54:37;6.60;;;4.37;;
4047;SDS011;2038;51.728;6.674;2024-02-26T02:57:06;5.53;;;4.80;;
4047;SDS011;2038;51.728;6.674;2024-02-26T02:59:36;5.63;;;4.13;;
4047;SDS011;2038;51.728;6.674;2024-02-26T03:02:02;5.13;;;4.00;;
4047;SDS011;2038;51.728;6.674;2024-02-26T03:04:29;4.03;;;3.73;;
4047;SDS011;2038;51.728;6.674;2024-02-26T03:06:56;5.50;;;4.40;;
4047;SDS011;2038;51.728;6.674;2024-02-26T03:09:22;3.83;;;3.53;;
4047;SDS011;2038;51.728;6.674;2024-02-26T03:11:49;4.40;;;4.00;;
4047;SDS011;2038;51.728;6.674;2024-02-26T03:14:15;4.93;;;4.43;;
4047;SDS011;2038;51.728;6.674;2024-02-26T03:16:41;5.17;;;4.70;;
4047;SDS011;2038;51.728;6.674;2024-02-26T03:19:07;9.70;;;5.00;;
4047;SDS011;2038;51.728;6.674;2024-02-26T03:21:34;7.20;;;4.90;;
4047;SDS011;2038;51.728;6.674;2024-02-26T03:24:00;7.40;;;5.40;;
4047;SDS011;2038;51.728;6.674;2024-02-26T03:26:26;5.20;;;4.80;;
4047;SDS011;2038;51.728;6.674;2024-02-26T03:28:53;4.67;;;4.27;;
4047;SDS011;2038;51.728;6.674;2024-02-26T03:31:19;15.60;;;5.07;;
4047;SDS011;2038;51.728;6.674;2024-02-26T03:33:46;4.60;;;4.10;;
4047;SDS011;2038;51.728;6.674;2024-02-26T03:36:13;5.63;;;5.13;;
4047;SDS011;2038;51.728;6.674;2024-02-26T03:38:40;4.87;;;4.47;;
4047;SDS011;2038;51.728;6.674;2024-02-26T03:41:06;5.77;;;4.40;;
4047;SDS011;2038;51.728;6.674;2024-02-26T03:43:33;5.10;;;4.00;;
4047;SDS011;2038;51.728;6.674;2024-02-26T03:45:59;4.87;;;4.47;;
4047;SDS011;2038;51.728;6.674;2024-02-26T03:48:26;4.20;;;3.90;;
4047;SDS011;2038;51.728;6.674;2024-02-26T03:50:52;5.20;;;4.70;;
4047;SDS011;2038;51.728;6.674;2024-02-26T03:53:18;4.47;;;4.07;;
4047;SDS011;2038;51.728;6.674;2024-02-26T03:55:44;6.30;;;4.13;;
4047;SDS011;2038;51.728;6.674;2024-02-26T03:58:12;4.30;;;4.00;;
4047;SDS011;2038;51.728;6.674;2024-02-26T04:00:38;4.80;;;4.03;;
4047;SDS011;2038;51.728;6.674;2024-02-26T04:03:05;5.73;;;4.00;;
4047;SDS011;2038;51.728;6.674;2024-02-26T04:05:31;4.93;;;3.87;;
4047;SDS011;2038;51.728;6.674;2024-02-26T04:07:57;5.00;;;4.47;;
4047;SDS011;2038;51.728;6.674;2024-02-26T04:10:23;5.20;;;3.90;;
4047;SDS011;2038;51.728;6.674;2024-02-26T04:12:50;4.87;;;4.43;;
4047;SDS011;2038;51.728;6.674;2024-02-26T04:15:16;9.33;;;4.37;;
4047;SDS011;2038;51.728;6.674;2024-02-26T04:17:42;3.80;;;3.47;;
4047;SDS011;2038;51.728;6.674;2024-02-26T04:20:13;4.50;;;4.10;;
4047;SDS011;2038;51.728;6.674;2024-02-26T04:22:41;4.67;;;4.27;;
4047;SDS011;2038;51.728;6.674;2024-02-26T04:25:08;4.30;;;3.87;;
4047;SDS011;2038;51.728;6.674;2024-02-26T04:27:36;5.57;;;5.07;;
4047;SDS011;2038;51.728;6.674;2024-02-26T04:30:03;4.00;;;3.47;;
4047;SDS011;2038;51.728;6.674;2024-02-26T04:32:31;8.70;;;4.30;;
4047;SDS011;2038;51.728;6.674;2024-02-26T04:34:59;4.30;;;3.90;;
4047;SDS011;2038;51.728;6.674;2024-02-26T04:37:26;4.17;;;3.87;;
4047;SDS011;2038;51.728;6.674;2024-02-26T04:39:57;4.13;;;3.73;;
4047;SDS011;2038;51.728;6.674;2024-02-26T04:42:24;4.13;;;3.83;;
4047;SDS011;2038;51.728;6.674;2024-02-26T04:44:50;5.40;;;4.53;;
4047;SDS011;2038;51.728;6.674;2024-02-26T04:47:17;4.40;;;4.00;;
4047;SDS011;2038;51.728;6.674;2024-02-26T04:49:43;5.23;;;4.73;;
4047;SDS011;2038;51.728;6.674;2024-02-26T04:52:09;7.10;;;4.20;;
4047;SDS011;2038;51.728;6.674;2024-02-26T04:54:36;4.40;;;4.00;;
4047;SDS011;2038;51.728;6.674;2024-02-26T04:57:03;5.33;;;4.70;;
4047;SDS011;2038;51.728;6.674;2024-02-26T04:59:29;9.80;;;5.20;;
4047;SDS011;2038;51.728;6.674;2024-02-26T05:01:56;4.30;;;3.73;;
4047;SDS011;2038;51.728;6.674;2024-02-26T05:04:22;4.70;;;4.20;;
4047;SDS011;2038;51.728;6.674;2024-02-26T05:06:48;4.40;;;4.00;;
4047;SDS011;2038;51.728;6.674;2024-02-26T05:09:14;4.87;;;4.07;;
4047;SDS011;2038;51.728;6.674;2024-02-26T05:11:41;4.87;;;4.20;;
4047;SDS011;2038;51.728;6.674;2024-02-26T05:14:07;5.23;;;4.20;;
4047;SDS011;2038;51.728;6.674;2024-02-26T05:16:34;5.30;;;4.20;;
4047;SDS011;2038;51.728;6.674;2024-02-26T05:19:00;4.60;;;4.20;;
4047;SDS011;2038;51.728;6.674;2024-02-26T05:21:27;5.90;;;4.30;;
4047;SDS011;2038;51.728;6.674;2024-02-26T05:23:54;6.10;;;4.70;;
4047;SDS011;2038;51.728;6.674;2024-02-26T05:26:20;6.10;;;4.53;;
4047;SDS011;2038;51.728;6.674;2024-02-26T05:28:48;4.00;;;3.70;;
4047;SDS011;2038;51.728;6.674;2024-02-26T05:31:14;4.37;;;3.97;;
4047;SDS011;2038;51.728;6.674;2024-02-26T05:33:41;4.10;;;3.70;;
4047;SDS011;2038;51.728;6.674;2024-02-26T05:36:08;4.80;;;4.30;;
4047;SDS011;2038;51.728;6.674;2024-02-26T05:38:34;4.90;;;3.70;;
4047;SDS011;2038;51.728;6.674;2024-02-26T05:41:00;4.37;;;4.07;;
4047;SDS011;2038;51.728;6.674;2024-02-26T05:43:27;4.57;;;4.17;;
4047;SDS011;2038;51.728;6.674;2024-02-26T05:45:54;3.83;;;3.53;;
4047;SDS011;2038;51.728;6.674;2024-02-26T05:48:21;4.20;;;3.23;;
4047;SDS011;2038;51.728;6.674;2024-02-26T05:50:47;3.00;;;2.80;;
4047;SDS011;2038;51.728;6.674;2024-02-26T05:53:13;4.20;;;3.43;;
4047;SDS011;2038;51.728;6.674;2024-02-26T05:55:40;4.10;;;3.70;;
4047;SDS011;2038;51.728;6.674;2024-02-26T05:58:06;3.83;;;3.53;;
4047;SDS011;2038;51.728;6.674;2024-02-26T06:00:32;4.10;;;3.73;;
4047;SDS011;2038;51.728;6.674;2024-02-26T06:02:59;3.60;;;2.97;;
4047;SDS011;2038;51.728;6.674;2024-02-26T06:05:27;4.93;;;3.57;;
4047;SDS011;2038;51.728;6.674;2024-02-26T06:07:53;4.00;;;3.47;;
4047;SDS011;2038;51.728;6.674;2024-02-26T06:10:20;4.33;;;3.50;;
4047;SDS011;2038;51.728;6.674;2024-02-26T06:12:46;4.17;;;3.77;;
4047;SDS011;2038;51.728;6.674;2024-02-26T06:15:13;4.33;;;4.00;;
4047;SDS011;2038;51.728;6.674;2024-02-26T06:17:39;5.10;;;4.30;;
4047;SDS011;2038;51.728;6.674;2024-02-26T06:20:06;4.93;;;4.43;;
4047;SDS011;2038;51.728;6.674;2024-02-26T06:22:36;6.70;;;4.30;;
4047;SDS011;2038;51.728;6.674;2024-02-26T06:25:05;4.37;;;3.97;;
4047;SDS011;2038;51.728;6.674;2024-02-26T06:27:33;5.00;;;4.50;;
4047;SDS011;2038;51.728;6.674;2024-02-26T06:30:00;5.50;;;4.03;;
4047;SDS011;2038;51.728;6.674;2024-02-26T06:32:26;4.90;;;4.40;;
4047;SDS011;2038;51.728;6.674;2024-02-26T06:34:54;4.77;;;4.37;;
4047;SDS011;2038;51.728;6.674;2024-02-26T06:37:21;5.53;;;4.93;;
4047;SDS011;2038;51.728;6.674;2024-02-26T06:39:47;5.27;;;4.43;;
4047;SDS011;2038;51.728;6.674;2024-02-26T06:42:13;4.07;;;3.77;;
4047;SDS011;2038;51.728;6.674;2024-02-26T06:44:40;6.80;;;4.30;;
4047;SDS011;2038;51.728;6.674;2024-02-26T06:47:06;4.83;;;4.43;;
4047;SDS011;2038;51.728;6.674;2024-02-26T06:49:32;7.00;;;5.47;;
4047;SDS011;2038;51.728;6.674;2024-02-26T06:51:59;5.90;;;5.30;;
4047;SDS011;2038;51.728;6.674;2024-02-26T06:54:25;4.50;;;4.10;;
4047;SDS011;2038;51.728;6.674;2024-02-26T06:56:51;7.37;;;5.40;;
4047;SDS011;2038;51.728;6.674;2024-02-26T06:59:18;4.73;;;4.13;;
4047;SDS011;2038;51.728;6.674;2024-02-26T07:01:45;5.27;;;4.70;;
4047;SDS011;2038;51.728;6.674;2024-02-26T07:04:11;6.40;;;4.50;;
4047;SDS011;2038;51.728;6.674;2024-02-26T07:06:37;4.90;;;4.50;;
4047;SDS011;2038;51.728;6.674;2024-02-26T07:09:04;6.13;;;4.90;;
4047;SDS011;2038;51.728;6.674;2024-02-26T07:11:30;7.00;;;4.67;;
4047;SDS011;2038;51.728;6.674;2024-02-26T07:13:56;4.67;;;4.17;;
4047;SDS011;2038;51.728;6.674;2024-02-26T07:16:23;5.53;;;4.93;;
4047;SDS011;2038;51.728;6.674;2024-02-26T07:18:49;6.33;;;5.30;;
4047;SDS011;2038;51.728;6.674;2024-02-26T07:21:15;6.03;;;4.70;;
4047;SDS011;2038;51.728;6.674;2024-02-26T07:23:41;8.63;;;4.90;;
4047;SDS011;2038;51.728;6.674;2024-02-26T07:26:08;6.40;;;4.70;;
4047;SDS011;2038;51.728;6.674;2024-02-26T07:28:36;4.50;;;4.20;;
4047;SDS011;2038;51.728;6.674;2024-02-26T07:31:03;4.63;;;4.23;;
4047;SDS011;2038;51.728;6.674;2024-02-26T07:33:29;4.70;;;4.30;;
4047;SDS011;2038;51.728;6.674;2024-02-26T07:35:55;7.00;;;5.87;;
4047;SDS011;2038;51.728;6.674;2024-02-26T07:38:21;4.40;;;4.00;;
4047;SDS011;2038;51.728;6.674;2024-02-26T07:40:49;4.30;;;3.90;;
4047;SDS011;2038;51.728;6.674;2024-02-26T07:43:15;5.10;;;4.60;;
4047;SDS011;2038;51.728;6.674;2024-02-26T07:45:41;4.57;;;4.17;;
4047;SDS011;2038;51.728;6.674;2024-02-26T07:48:07;6.23;;;4.20;;
4047;SDS011;2038;51.728;6.674;2024-02-26T07:50:33;5.53;;;4.83;;
4047;SDS011;2038;51.728;6.674;2024-02-26T07:53:00;4.17;;;3.77;;
4047;SDS011;2038;51.728;6.674;2024-02-26T07:55:27;5.80;;;4.20;;
4047;SDS011;2038;51.728;6.674;2024-02-26T07:57:53;7.80;;;4.07;;
4047;SDS011;2038;51.728;6.674;2024-02-26T08:00:19;5.57;;;4.23;;
4047;SDS011;2038;51.728;6.674;2024-02-26T08:02:46;4.83;;;4.10;;
4047;SDS011;2038;51.728;6.674;2024-02-26T08:05:12;4.83;;;4.43;;
4047;SDS011;2038;51.728;6.674;2024-02-26T08:07:39;4.50;;;4.10;;
4047;SDS011;2038;51.728;6.674;2024-02-26T08:10:06;5.50;;;4.87;;
4047;SDS011;2038;51.728;6.674;2024-02-26T08:12:33;6.00;;;5.03;;
4047;SDS011;2038;51.728;6.674;2024-02-26T08:14:59;4.73;;;4.33;;
4047;SDS011;2038;51.728;6.674;2024-02-26T08:17:26;4.87;;;4.37;;
4047;SDS011;2038;51.728;6.674;2024-02-26T08:19:52;5.07;;;4.60;;
4047;SDS011;2038;51.728;6.674;2024-02-26T08:22:19;6.90;;;4.83;;
4047;SDS011;2038;51.728;6.674;2024-02-26T08:24:45;5.53;;;4.70;;
4047;SDS011;2038;51.728;6.674;2024-02-26T08:27:11;6.10;;;5.50;;
4047;SDS011;2038;51.728;6.674;2024-02-26T08:29:38;6.47;;;5.13;;
4047;SDS011;2038;51.728;6.674;2024-02-26T08:32:04;4.83;;;4.37;;
4047;SDS011;2038;51.728;6.674;2024-02-26T08:34:32;7.97;;;5.13;;
4047;SDS011;2038;51.728;6.674;2024-02-26T08:36:58;6.20;;;5.60;;
4047;SDS011;2038;51.728;6.674;2024-02-26T08:39:24;6.00;;;5.43;;
4047;SDS011;2038;51.728;6.674;2024-02-26T08:41:51;7.10;;;5.43;;
4047;SDS011;2038;51.728;6.674;2024-02-26T08:44:17;5.80;;;5.00;;
4047;SDS011;2038;51.728;6.674;2024-02-26T08:46:43;6.47;;;5.43;;
4047;SDS011;2038;51.728;6.674;2024-02-26T08:49:11;6.77;;;4.57;;
4047;SDS011;2038;51.728;6.674;2024-02-26T08:51:43;6.10;;;5.50;;
4047;SDS011;2038;51.728;6.674;2024-02-26T08:54:10;5.60;;;5.10;;
4047;SDS011;2038;51.728;6.674;2024-02-26T08:56:36;5.67;;;5.17;;
4047;SDS011;2038;51.728;6.674;2024-02-26T08:59:03;7.13;;;5.40;;
4047;SDS011;2038;51.728;6.674;2024-02-26T09:01:30;6.03;;;5.30;;
4047;SDS011;2038;51.728;6.674;2024-02-26T09:03:57;6.13;;;5.53;;
4047;SDS011;2038;51.728;6.674;2024-02-26T09:06:24;6.07;;;5.47;;
4047;SDS011;2038;51.728;6.674;2024-02-26T09:08:50;10.23;;;6.77;;
4047;SDS011;2038;51.728;6.674;2024-02-26T09:11:16;6.40;;;5.80;;
4047;SDS011;2038;51.728;6.674;2024-02-26T09:13:43;6.23;;;5.73;;
4047;SDS011;2038;51.728;6.674;2024-02-26T09:16:09;7.03;;;6.23;;
4047;SDS011;2038;51.728;6.674;2024-02-26T09:18:36;7.13;;;6.30;;
4047;SDS011;2038;51.728;6.674;2024-02-26T09:21:06;8.60;;;7.20;;
4047;SDS011;2038;51.728;6.674;2024-02-26T09:23:32;7.70;;;6.17;;
4047;SDS011;2038;51.728;6.674;2024-02-26T09:26:00;7.10;;;6.40;;
4047;SDS011;2038;51.728;6.674;2024-02-26T09:28:26;7.50;;;6.83;;
4047;SDS011;2038;51.728;6.674;2024-02-26T09:30:52;6.37;;;5.70;;
4047;SDS011;2038;51.728;6.674;2024-02-26T09:33:19;7.40;;;6.50;;
4047;SDS011;2038;51.728;6.674;2024-02-26T09:35:45;6.37;;;5.83;;
4047;SDS011;2038;51.728;6.674;2024-02-26T09:38:12;7.53;;;6.57;;
4047;SDS011;2038;51.728;6.674;2024-02-26T09:40:39;8.00;;;6.17;;
4047;SDS011;2038;51.728;6.674;2024-02-26T09:43:05;6.97;;;6.27;;
4047;SDS011;2038;51.728;6.674;2024-02-26T09:45:40;14.93;;;7.90;;
4047;SDS011;2038;51.728;6.674;2024-02-26T09:48:08;6.57;;;5.97;;
4047;SDS011;2038;51.728;6.674;2024-02-26T09:50:37;8.60;;;7.27;;
4047;SDS011;2038;51.728;6.674;2024-02-26T09:53:07;9.33;;;8.20;;
4047;SDS011;2038;51.728;6.674;2024-02-26T09:55:36;10.50;;;7.60;;
4047;SDS011;2038;51.728;6.674;2024-02-26T09:58:03;8.70;;;7.80;;
4047;SDS011;2038;51.728;6.674;2024-02-26T10:00:31;8.37;;;7.10;;
4047;SDS011;2038;51.728;6.674;2024-02-26T10:03:03;9.10;;;7.30;;
4047;SDS011;2038;51.728;6.674;2024-02-26T10:05:38;10.80;;;7.77;;
4047;SDS011;2038;51.728;6.674;2024-02-26T10:08:06;9.50;;;7.50;;
4047;SDS011;2038;51.728;6.674;2024-02-26T10:10:37;9.07;;;7.50;;
4047;SDS011;2038;51.728;6.674;2024-02-26T10:13:05;8.83;;;7.50;;
4047;SDS011;2038;51.728;6.674;2024-02-26T10:15:35;7.97;;;7.17;;
4047;SDS011;2038;51.728;6.674;2024-02-26T10:18:05;7.37;;;6.67;;
4047;SDS011;2038;51.728;6.674;2024-02-26T10:20:31;7.97;;;7.17;;
4047;SDS011;2038;51.728;6.674;2024-02-26T10:22:58;8.73;;;6.73;;
4047;SDS011;2038;51.728;6.674;2024-02-26T10:25:28;11.00;;;7.33;;
4047;SDS011;2038;51.728;6.674;2024-02-26T10:27:57;7.33;;;6.67;;
4047;SDS011;2038;51.728;6.674;2024-02-26T10:30:29;9.10;;;7.73;;
4047;SDS011;2038;51.728;6.674;2024-02-26T10:32:56;8.73;;;7.63;;
4047;SDS011;2038;51.728;6.674;2024-02-26T10:35:22;7.90;;;7.20;;
4047;SDS011;2038;51.728;6.674;2024-02-26T10:37:49;8.07;;;7.27;;
4047;SDS011;2038;51.728;6.674;2024-02-26T10:40:16;9.57;;;7.83;;
4047;SDS011;2038;51.728;6.674;2024-02-26T10:42:43;9.47;;;7.73;;
4047;SDS011;2038;51.728;6.674;2024-02-26T10:45:12;8.23;;;7.13;;
4047;SDS011;2038;51.728;6.674;2024-02-26T10:47:39;10.33;;;7.87;;
4047;SDS011;2038;51.728;6.674;2024-02-26T10:50:09;8.43;;;7.47;;
4047;SDS011;2038;51.728;6.674;2024-02-26T10:52:38;10.00;;;7.20;;
4047;SDS011;2038;51.728;6.674;2024-02-26T10:55:06;12.63;;;8.27;;
4047;SDS011;2038;51.728;6.674;2024-02-26T10:57:45;8.57;;;7.13;;
4047;SDS011;2038;51.728;6.674;2024-02-26T11:00:13;10.50;;;8.90;;
4047;SDS011;2038;51.728;6.674;2024-02-26T11:02:41;8.13;;;7.33;;
4047;SDS011;2038;51.728;6.674;2024-02-26T11:05:11;13.70;;;7.60;;
4047;SDS011;2038;51.728;6.674;2024-02-26T11:07:39;11.27;;;8.13;;
4047;SDS011;2038;51.728;6.674;2024-02-26T11:10:09;11.47;;;7.37;;
4047;SDS011;2038;51.728;6.674;2024-02-26T11:12:36;11.93;;;9.37;;
4047;SDS011;2038;51.728;6.674;2024-02-26T11:15:05;11.47;;;7.60;;
4047;SDS011;2038;51.728;6.674;2024-02-26T11:17:33;8.10;;;7.30;;
4047;SDS011;2038;51.728;6.674;2024-02-26T11:20:01;9.23;;;7.80;;
4047;SDS011;2038;51.728;6.674;2024-02-26T11:22:28;11.77;;;9.10;;
4047;SDS011;2038;51.728;6.674;2024-02-26T11:24:55;12.30;;;8.93;;
4047;SDS011;2038;51.728;6.674;2024-02-26T11:27:38;13.77;;;8.70;;
4047;SDS011;2038;51.728;6.674;2024-02-26T11:30:29;9.63;;;8.23;;
4047;SDS011;2038;51.728;6.674;2024-02-26T11:33:00;10.43;;;7.90;;
4047;SDS011;2038;51.728;6.674;2024-02-26T11:35:28;10.20;;;8.80;;
4047;SDS011;2038;51.728;6.674;2024-02-26T11:37:55;12.67;;;9.33;;
4047;SDS011;2038;51.728;6.674;2024-02-26T11:40:26;11.10;;;8.47;;
4047;SDS011;2038;51.728;6.674;2024-02-26T11:42:53;13.73;;;10.30;;
4047;SDS011;2038;51.728;6.674;2024-02-26T11:48:14;12.73;;;9.97;;
4047;SDS011;2038;51.728;6.674;2024-02-26T11:50:54;15.27;;;10.77;;
4047;SDS011;2038;51.728;6.674;2024-02-26T11:58:43;12.00;;;9.40;;
4047;SDS011;2038;51.728;6.674;2024-02-26T12:01:45;13.80;;;10.63;;
4047;SDS011;2038;51.728;6.674;2024-02-26T12:04:05;13.60;;;11.43;;
4047;SDS011;2038;51.728;6.674;2024-02-26T12:09:37;16.63;;;9.83;;
4047;SDS011;2038;51.728;6.674;2024-02-26T12:14:39;14.17;;;10.30;;
4047;SDS011;2038;51.728;6.674;2024-02-26T12:17:23;12.77;;;9.80;;
4047;SDS011;2038;51.728;6.674;2024-02-26T12:19:50;13.70;;;9.67;;
4047;SDS011;2038;51.728;6.674;2024-02-26T12:22:18;11.40;;;9.60;;
4047;SDS011;2038;51.728;6.674;2024-02-26T12:24:45;13.07;;;9.80;;
4047;SDS011;2038;51.728;6.674;2024-02-26T12:27:11;11.33;;;8.57;;
4047;SDS011;2038;51.728;6.674;2024-02-26T12:29:39;12.57;;;10.30;;
4047;SDS011;2038;51.728;6.674;2024-02-26T12:32:05;11.03;;;8.90;;
4047;SDS011;2038;51.728;6.674;2024-02-26T12:34:32;11.70;;;9.30;;
4047;SDS011;2038;51.728;6.674;2024-02-26T12:36:59;10.83;;;8.83;;
4047;SDS011;2038;51.728;6.674;2024-02-26T12:39:26;13.50;;;8.97;;
4047;SDS011;2038;51.728;6.674;2024-02-26T12:41:52;11.40;;;9.00;;
4047;SDS011;2038;51.728;6.674;2024-02-26T12:44:26;13.40;;;9.30;;
4047;SDS011;2038;51.728;6.674;2024-02-26T12:46:59;10.07;;;8.63;;
4047;SDS011;2038;51.728;6.674;2024-02-26T12:49:28;10.37;;;9.27;;
4047;SDS011;2038;51.728;6.674;2024-02-26T12:51:54;11.87;;;8.53;;
4047;SDS011;2038;51.728;6.674;2024-02-26T12:54:26;9.63;;;7.97;;
4047;SDS011;2038;51.728;6.674;2024-02-26T12:56:56;17.83;;;9.70;;
4047;SDS011;2038;51.728;6.674;2024-02-26T12:59:25;12.07;;;8.17;;
4047;SDS011;2038;51.728;6.674;2024-02-26T13:01:52;9.20;;;8.20;;
4047;SDS011;2038;51.728;6.674;2024-02-26T13:04:18;13.43;;;10.80;;
4047;SDS011;2038;51.728;6.674;2024-02-26T13:06:45;10.80;;;8.97;;
4047;SDS011;2038;51.728;6.674;2024-02-26T13:09:12;12.80;;;9.80;;
4047;SDS011;2038;51.728;6.674;2024-02-26T13:11:39;13.57;;;8.87;;
4047;SDS011;2038;51.728;6.674;2024-02-26T13:14:05;12.80;;;9.97;;
4047;SDS011;2038;51.728;6.674;2024-02-26T13:16:32;13.83;;;9.30;;
4047;SDS011;2038;51.728;6.674;2024-02-26T13:19:08;12.97;;;10.47;;
4047;SDS011;2038;51.728;6.674;2024-02-26T13:21:37;12.87;;;9.13;;
4047;SDS011;2038;51.728;6.674;2024-02-26T13:24:03;13.67;;;9.77;;
4047;SDS011;2038;51.728;6.674;2024-02-26T13:26:31;13.73;;;9.37;;
4047;SDS011;2038;51.728;6.674;2024-02-26T13:29:01;15.13;;;9.70;;
4047;SDS011;2038;51.728;6.674;2024-02-26T13:31:30;16.07;;;10.13;;
4047;SDS011;2038;51.728;6.674;2024-02-26T13:34:04;13.97;;;9.73;;
4047;SDS011;2038;51.728;6.674;2024-02-26T13:36:30;11.87;;;8.93;;
4047;SDS011;2038;51.728;6.674;2024-02-26T13:38:56;16.73;;;10.87;;
4047;SDS011;2038;51.728;6.674;2024-02-26T13:41:23;15.30;;;10.63;;
4047;SDS011;2038;51.728;6.674;2024-02-26T13:43:49;17.83;;;10.50;;
4047;SDS011;2038;51.728;6.674;2024-02-26T13:46:16;14.23;;;10.67;;
4047;SDS011;2038;51.728;6.674;2024-02-26T13:48:42;18.43;;;10.70;;
4047;SDS011;2038;51.728;6.674;2024-02-26T13:51:09;16.43;;;10.53;;
4047;SDS011;2038;51.728;6.674;2024-02-26T13:53:35;17.80;;;11.40;;
4047;SDS011;2038;51.728;6.674;2024-02-26T13:56:01;13.30;;;10.50;;
4047;SDS011;2038;51.728;6.674;2024-02-26T13:58:30;14.77;;;10.27;;
4047;SDS011;2038;51.728;6.674;2024-02-26T14:00:57;17.40;;;10.60;;
4047;SDS011;2038;51.728;6.674;2024-02-26T14:03:24;13.63;;;9.83;;
4047;SDS011;2038;51.728;6.674;2024-02-26T14:05:51;19.30;;;11.90;;
4047;SDS011;2038;51.728;6.674;2024-02-26T14:08:18;17.60;;;10.13;;
4047;SDS011;2038;51.728;6.674;2024-02-26T14:10:44;16.13;;;10.40;;
4047;SDS011;2038;51.728;6.674;2024-02-26T14:13:10;20.13;;;12.13;;
4047;SDS011;2038;51.728;6.674;2024-02-26T14:15:36;15.90;;;10.40;;
4047;SDS011;2038;51.728;6.674;2024-02-26T14:18:04;17.50;;;11.20;;
4047;SDS011;2038;51.728;6.674;2024-02-26T14:20:32;18.40;;;11.73;;
4047;SDS011;2038;51.728;6.674;2024-02-26T14:22:58;18.67;;;11.97;;
4047;SDS011;2038;51.728;6.674;2024-02-26T14:25:25;19.17;;;12.53;;
4047;SDS011;2038;51.728;6.674;2024-02-26T14:27:51;17.97;;;12.77;;
4047;SDS011;2038;51.728;6.674;2024-02-26T14:30:18;17.33;;;11.90;;
4047;SDS011;2038;51.728;6.674;2024-02-26T14:32:44;19.10;;;12.20;;
4047;SDS011;2038;51.728;6.674;2024-02-26T14:35:11;21.37;;;13.90;;
4047;SDS011;2038;51.728;6.674;2024-02-26T14:37:37;18.13;;;12.30;;
4047;SDS011;2038;51.728;6.674;2024-02-26T14:40:03;20.90;;;12.23;;
4047;SDS011;2038;51.728;6.674;2024-02-26T14:42:31;19.10;;;13.33;;
4047;SDS011;2038;51.728;6.674;2024-02-26T14:44:57;16.67;;;10.87;;
4047;SDS011;2038;51.728;6.674;2024-02-26T14:47:24;16.93;;;11.37;;
4047;SDS011;2038;51.728;6.674;2024-02-26T14:49:51;19.87;;;12.00;;
4047;SDS011;2038;51.728;6.674;2024-02-26T14:52:17;20.17;;;13.10;;
4047;SDS011;2038;51.728;6.674;2024-02-26T14:54:43;21.40;;;12.27;;
4047;SDS011;2038;51.728;6.674;2024-02-26T14:57:10;25.47;;;13.10;;
4047;SDS011;2038;51.728;6.674;2024-02-26T14:59:36;21.50;;;13.00;;
4047;SDS011;2038;51.728;6.674;2024-02-26T15:02:03;20.60;;;12.77;;
4047;SDS011;2038;51.728;6.674;2024-02-26T15:04:30;20.73;;;12.30;;
4047;SDS011;2038;51.728;6.674;2024-02-26T15:06:56;17.47;;;12.37;;
4047;SDS011;2038;51.728;6.674;2024-02-26T15:09:22;17.23;;;13.13;;
4047;SDS011;2038;51.728;6.674;2024-02-26T15:11:48;19.50;;;13.40;;
4047;SDS011;2038;51.728;6.674;2024-02-26T15:14:15;17.10;;;11.80;;
4047;SDS011;2038;51.728;6.674;2024-02-26T15:16:41;15.23;;;11.30;;
4047;SDS011;2038;51.728;6.674;2024-02-26T15:19:07;20.63;;;13.33;;
4047;SDS011;2038;51.728;6.674;2024-02-26T15:21:34;20.20;;;13.60;;
4047;SDS011;2038;51.728;6.674;2024-02-26T15:24:08;20.57;;;12.63;;